Time;durP1;ratioP1;P1;durP2;ratioP2;P2;SDS_P1;SDS_P2;PMS_P1;PMS_P2;Temp;Humidity;BMP_temperature;BMP_pressure;BME280_temperature;BME280_humidity;BME280_pressure;Samples;Min_cycle;Max_cycle;Signal;HPM_P1;HPM_P2
2022/04/17 00:00:10;;;;;;;5.50;2.88;;;;;;;10.82;63.55;101196.44;5035834;28;20052;-65
2022/04/17 00:02:54;;;;;;;4.30;2.38;;;;;;;10.81;63.09;101199.84;5034207;28;20531;-65
2022/04/17 00:05:38;;;;;;;4.07;2.53;;;;;;;10.80;63.31;101190.31;5035568;28;20416;-65
2022/04/17 00:08:22;;;;;;;2.83;2.60;;;;;;;10.77;63.17;101197.97;5034360;28;20570;-65
2022/04/17 00:11:06;;;;;;;4.75;2.65;;;;;;;10.77;62.80;101182.41;5035538;28;20107;-65
2022/04/17 00:13:51;;;;;;;;;;;;;;;10.73;62.97;101181.44;5035820;28;20052;-65
2022/04/17 00:16:35;;;;;;;2.75;2.42;;;;;;;10.70;63.15;101181.31;5035327;28;20054;-65
2022/04/17 00:19:19;;;;;;;5.55;2.55;;;;;;;10.71;63.05;101179.59;5035700;28;20131;-67
2022/04/17 00:22:03;;;;;;;2.78;2.20;;;;;;;10.69;62.61;101173.47;5035227;28;20103;-65
2022/04/17 00:24:47;;;;;;;5.78;2.50;;;;;;;10.70;62.83;101170.06;5034969;28;20082;-65
2022/04/17 00:27:31;;;;;;;4.22;2.80;;;;;;;10.69;62.70;101170.88;5034758;28;20052;-65
2022/04/17 00:30:15;;;;;;;2.95;2.45;;;;;;;10.70;62.97;101165.78;5034573;28;20044;-65
2022/04/17 00:32:59;;;;;;;;;;;;;;;10.68;62.35;101163.94;5034799;28;20087;-65
2022/04/17 00:35:44;;;;;;;3.75;2.70;;;;;;;10.65;62.73;101163.03;5035412;28;19966;-65
2022/04/17 00:38:28;;;;;;;3.80;2.75;;;;;;;10.68;62.78;101164.84;5035509;28;20048;-65
2022/04/17 00:41:12;;;;;;;4.00;2.95;;;;;;;10.70;62.70;101164.88;5034934;28;20099;-64
2022/04/17 00:43:59;;;;;;;3.70;2.42;;;;;;;10.70;62.52;101164.88;5034847;28;20102;-64
2022/04/17 00:46:43;;;;;;;3.17;2.38;;;;;;;10.71;62.66;101164.03;5034641;28;20052;-65
2022/04/17 00:49:27;;;;;;;5.03;2.58;;;;;;;10.70;62.68;101163.19;5034997;28;20495;-65
2022/04/17 00:52:12;;;;;;;2.60;2.40;;;;;;;10.68;62.45;101157.06;5034866;28;20053;-65
2022/04/17 00:54:57;;;;;;;3.55;2.28;;;;;;;10.68;62.61;101151.88;5034480;28;20096;-65
2022/04/17 00:57:41;;;;;;;3.00;2.55;;;;;;;10.68;62.69;101149.28;5033861;28;20125;-65
2022/04/17 01:00:25;;;;;;;2.45;2.25;;;;;;;10.70;62.52;101159.69;5033394;28;20176;-65
2022/04/17 01:03:12;;;;;;;5.13;2.90;;;;;;;10.69;62.51;101156.22;5033479;28;20634;-65
2022/04/17 01:05:58;;;;;;;3.78;2.55;;;;;;;10.69;62.37;101164.00;5033635;28;20132;-66
2022/04/17 01:08:42;;;;;;;3.60;2.40;;;;;;;10.69;62.41;101163.09;5033432;28;20056;-65
2022/04/17 01:11:27;;;;;;;3.05;2.65;;;;;;;10.66;62.68;101158.72;5033813;28;20524;-65
2022/04/17 01:14:12;;;;;;;4.30;2.83;;;;;;;10.66;62.34;101157.03;5033664;28;20045;-65
2022/04/17 01:16:56;;;;;;;4.47;2.60;;;;;;;10.68;62.55;101162.25;5033808;28;20186;-65
2022/04/17 01:19:40;;;;;;;3.70;2.40;;;;;;;10.66;62.46;101159.63;5034278;28;20679;-65
2022/04/17 01:22:25;;;;;;;4.47;2.58;;;;;;;10.69;62.34;101155.34;5033103;28;20048;-65
2022/04/17 01:28:11;;;;;;;3.97;3.00;;;;;;;10.68;62.72;101156.16;5034278;28;20456;-65
2022/04/17 01:30:56;;;;;;;3.15;2.63;;;;;;;10.69;62.85;101153.63;5034094;28;20048;-65
2022/04/17 01:33:41;;;;;;;5.03;2.90;;;;;;;10.70;62.28;101155.41;5032519;28;20051;-65
2022/04/17 01:36:24;;;;;;;3.08;2.67;;;;;;;10.70;62.51;101147.63;5034301;28;20048;-65
2022/04/17 01:39:09;;;;;;;4.50;2.35;;;;;;;10.69;62.54;101150.16;5034628;28;20106;-65
2022/04/17 01:41:54;;;;;;;3.25;2.72;;;;;;;10.70;62.57;101157.09;5032804;28;20183;-66
2022/04/17 01:44:38;;;;;;;6.15;2.92;;;;;;;10.66;62.41;101154.44;5032921;28;20052;-65
2022/04/17 01:47:23;;;;;;;;;;;;;;;10.64;62.10;101163.84;5032966;28;20044;-65
2022/04/17 01:50:07;;;;;;;4.18;2.55;;;;;;;10.62;62.13;101157.75;5033292;28;19963;-65
2022/04/17 01:52:51;;;;;;;;;;;;;;;10.61;62.01;101155.06;5034382;28;20083;-65
2022/04/17 01:55:35;;;;;;;3.67;2.75;;;;;;;10.58;62.33;101158.47;5033147;28;20304;-66
2022/04/17 01:58:19;;;;;;;5.72;2.95;;;;;;;10.60;62.34;101158.50;5032858;28;20083;-65
2022/04/17 02:01:04;;;;;;;4.00;2.70;;;;;;;10.57;62.00;101159.28;5033400;28;20091;-65
2022/04/17 02:03:48;;;;;;;;;;;;;;;10.58;62.04;101155.88;5032903;28;20042;-64
2022/04/17 02:06:32;;;;;;;3.70;2.78;;;;;;;10.59;62.25;101157.63;5032364;28;20387;-65
2022/04/17 02:09:17;;;;;;;;;;;;;;;10.60;62.17;101158.50;5033554;28;20052;-65
2022/04/17 02:12:01;;;;;;;;;;;;;;;10.59;62.07;101160.22;5033144;28;20280;-65
2022/04/17 02:14:46;;;;;;;4.15;2.95;;;;;;;10.60;62.42;101153.31;5032806;28;19924;-65
2022/04/17 02:17:35;;;;;;;3.10;2.65;;;;;;;10.61;62.52;101158.56;5032931;28;20524;-65
2022/04/17 02:20:19;;;;;;;3.10;2.78;;;;;;;10.63;62.59;101150.81;5032183;28;20060;-65
2022/04/17 02:23:02;;;;;;;4.72;3.05;;;;;;;10.63;62.32;101154.31;5033600;28;20043;-65
2022/04/17 02:25:46;;;;;;;4.05;2.97;;;;;;;10.63;62.46;101149.13;5032355;28;20057;-65
2022/04/17 02:28:34;;;;;;;3.78;2.65;;;;;;;10.64;62.64;101150.00;5033000;28;20417;-65
2022/04/17 02:31:18;;;;;;;3.47;3.03;;;;;;;10.65;62.35;101139.69;5032139;28;20133;-65
2022/04/17 02:34:02;;;;;;;3.75;3.15;;;;;;;10.66;62.82;101137.97;5032977;28;20045;-66
2022/04/17 02:36:46;;;;;;;3.30;2.78;;;;;;;10.65;62.46;101137.09;5033489;28;20049;-65
2022/04/17 02:39:31;;;;;;;4.30;2.60;;;;;;;10.66;62.39;101144.06;5032792;28;20413;-65
2022/04/17 02:42:15;;;;;;;;;;;;;;;10.65;62.29;101147.47;5033709;28;20527;-65
2022/04/17 02:44:58;;;;;;;3.17;2.88;;;;;;;10.66;62.61;101146.66;5035144;28;19928;-65
2022/04/17 02:47:42;;;;;;;3.65;2.83;;;;;;;10.65;62.78;101134.50;5036861;28;20049;-65
2022/04/17 02:50:26;;;;;;;3.75;2.83;;;;;;;10.67;62.56;101131.97;5036369;28;20056;-65
2022/04/17 02:53:10;;;;;;;4.68;3.33;;;;;;;10.66;62.85;101132.78;5036486;28;20583;-65
2022/04/17 02:55:54;;;;;;;5.10;3.22;;;;;;;10.66;62.50;101135.38;5036138;28;20096;-65
2022/04/17 02:58:38;;;;;;;3.33;2.85;;;;;;;10.66;62.70;101122.41;5036690;28;20096;-65
2022/04/17 03:07:32;;;;;;;9.63;3.10;;;;;;;10.64;63.09;101124.97;5036537;28;20084;-65
2022/04/17 03:10:15;;;;;;;5.57;3.15;;;;;;;10.64;62.58;101124.97;5036167;28;20068;-65
2022/04/17 03:12:59;;;;;;;3.85;3.20;;;;;;;10.63;62.76;101120.63;5036867;28;20069;-65
2022/04/17 03:15:43;;;;;;;3.10;2.80;;;;;;;10.64;62.74;101118.88;5036698;28;20500;-66
2022/04/17 03:18:27;;;;;;;3.10;2.80;;;;;;;10.62;62.86;101121.44;5036568;28;20053;-65
2022/04/17 03:21:11;;;;;;;3.58;3.08;;;;;;;10.60;63.00;101117.91;5037322;28;20099;-65
2022/04/17 03:23:55;;;;;;;;;;;;;;;10.56;62.51;101116.03;5036654;28;20125;-65
2022/04/17 03:26:41;;;;;;;4.68;3.00;;;;;;;10.56;63.04;101113.44;5036200;28;19967;-65
2022/04/17 03:29:25;;;;;;;3.50;3.08;;;;;;;10.57;62.82;101116.94;5035868;28;20040;-65
2022/04/17 03:32:09;;;;;;;4.68;3.60;;;;;;;10.55;62.84;101111.69;5035646;28;20087;-65
2022/04/17 03:34:53;;;;;;;3.28;2.97;;;;;;;10.55;63.30;101105.63;5036183;28;20049;-65
2022/04/17 03:37:37;;;;;;;4.05;3.65;;;;;;;10.53;62.66;101105.56;5035566;28;20106;-65
2022/04/17 03:40:21;;;;;;;4.15;3.25;;;;;;;10.53;62.59;101102.09;5035686;28;20496;-65
2022/04/17 03:43:05;;;;;;;4.05;3.65;;;;;;;10.52;62.85;101098.63;5035263;28;20048;-65
2022/04/17 03:45:49;;;;;;;3.17;2.88;;;;;;;10.51;62.83;101096.84;5035773;28;20102;-65
2022/04/17 03:48:33;;;;;;;4.18;3.50;;;;;;;10.49;62.56;101096.81;5036083;28;20404;-65
2022/04/17 03:51:17;;;;;;;3.85;3.22;;;;;;;10.49;63.00;101093.34;5036116;28;20040;-65
2022/04/17 03:54:01;;;;;;;3.88;3.47;;;;;;;10.47;62.50;101089.84;5035904;28;20123;-65
2022/04/17 03:56:46;;;;;;;4.75;3.28;;;;;;;10.46;63.24;101088.94;5035597;28;20138;-65
2022/04/17 03:59:31;;;;;;;4.05;3.45;;;;;;;10.46;62.85;101077.69;5035638;28;20541;-65
2022/04/17 04:02:16;;;;;;;3.72;3.33;;;;;;;10.44;63.00;101076.75;5034957;28;20088;-65
2022/04/17 04:05:00;;;;;;;3.70;3.03;;;;;;;10.46;63.10;101086.34;5035789;28;20049;-65
2022/04/17 04:07:44;;;;;;;6.40;4.20;;;;;;;10.45;63.03;101082.00;5035791;28;20099;-65
2022/04/17 04:10:27;;;;;;;3.97;3.40;;;;;;;10.46;63.17;101098.44;5035547;28;20048;-65
2022/04/17 04:13:11;;;;;;;3.85;3.50;;;;;;;10.45;63.30;101094.09;5035246;28;20052;-65
2022/04/17 04:15:55;;;;;;;5.78;3.35;;;;;;;10.43;62.93;101088.81;5035786;28;20044;-65
2022/04/17 04:18:39;;;;;;;4.60;4.10;;;;;;;10.44;63.18;101088.00;5034829;28;20128;-66
2022/04/17 04:21:23;;;;;;;5.13;3.65;;;;;;;10.43;63.03;101085.38;5035688;28;20052;-65
2022/04/17 04:24:07;;;;;;;4.05;3.45;;;;;;;10.42;63.12;101081.00;5034404;28;20516;-65
2022/04/17 04:29:54;;;;;;;3.63;3.33;;;;;;;10.40;63.28;101070.59;5035508;28;20124;-65
2022/04/17 04:32:37;;;;;;;4.22;3.55;;;;;;;10.39;63.16;101076.63;5035008;28;20056;-65
2022/04/17 04:35:22;;;;;;;4.18;3.78;;;;;;;10.40;63.41;101080.97;5035070;28;20045;-65
2022/04/17 04:38:07;;;;;;;5.35;3.67;;;;;;;10.39;63.39;101083.50;5034426;28;20064;-65
2022/04/17 04:40:51;;;;;;;;;;;;;;;10.37;63.10;101080.84;5035668;28;20087;-65
2022/04/17 04:43:35;;;;;;;4.18;3.80;;;;;;;10.34;63.29;101079.03;5034136;28;19959;-65
2022/04/17 04:46:19;;;;;;;4.03;3.72;;;;;;;10.35;62.98;101074.72;5034661;28;20451;-65
2022/04/17 04:52:06;;;;;;;5.07;3.83;;;;;;;10.34;63.36;101075.53;5034926;28;20068;-65
2022/04/17 04:54:50;;;;;;;;;;;;;;;10.32;62.91;101072.91;5034339;28;20397;-65
2022/04/17 04:57:38;;;;;;;4.50;3.80;;;;;;;10.31;62.96;101076.34;5034952;28;19919;-66
2022/04/17 05:00:21;;;;;;;4.78;4.32;;;;;;;10.30;63.30;101077.16;5034786;28;20547;-65
2022/04/17 05:03:07;;;;;;;4.63;3.92;;;;;;;10.31;63.12;101078.03;5033665;28;20080;-65
2022/04/17 05:05:54;;;;;;;4.53;3.78;;;;;;;10.29;63.20;101070.22;5033856;28;20051;-66
2022/04/17 05:08:38;;;;;;;6.30;4.72;;;;;;;10.28;63.08;101065.84;5033332;28;20492;-65
2022/04/17 05:11:23;;;;;;;4.68;3.92;;;;;;;10.28;63.10;101063.25;5034106;28;20076;-65
2022/04/17 05:14:11;;;;;;;5.60;4.10;;;;;;;10.28;63.09;101062.38;5034182;28;20056;-65
2022/04/17 05:16:55;;;;;;;4.55;3.83;;;;;;;10.27;63.35;101063.22;5033334;28;20049;-65
2022/04/17 05:19:39;;;;;;;4.32;3.92;;;;;;;10.25;63.40;101060.56;5034235;28;20092;-65
2022/04/17 05:22:31;;;;;;;4.05;3.65;;;;;;;10.24;63.29;101065.72;5034468;28;20095;-65
2022/04/17 05:25:15;;;;;;;5.10;3.58;;;;;;;10.21;62.83;101058.69;5033740;28;20562;-65
2022/04/17 05:27:59;;;;;;;5.25;4.38;;;;;;;10.20;62.82;101057.81;5034056;28;20091;-65
2022/04/17 05:30:44;;;;;;;6.13;4.43;;;;;;;10.19;62.89;101065.56;5034157;28;20051;-65
2022/04/17 05:33:28;;;;;;;4.10;3.53;;;;;;;10.18;62.95;101053.44;5033621;28;20044;-65
2022/04/17 05:36:12;;;;;;;4.95;3.75;;;;;;;10.19;63.52;101065.56;5033797;28;20144;-66
2022/04/17 05:38:56;;;;;;;5.90;4.10;;;;;;;10.19;63.20;101057.78;5033983;28;20087;-65
2022/04/17 05:41:40;;;;;;;4.40;4.00;;;;;;;10.18;63.32;101050.84;5033019;28;20091;-65
2022/04/17 05:44:24;;;;;;;4.22;3.83;;;;;;;10.19;63.25;101055.19;5033782;28;20060;-65
2022/04/17 05:47:09;;;;;;;5.63;4.60;;;;;;;10.17;63.06;101049.94;5033521;28;20071;-65
2022/04/17 05:49:53;;;;;;;6.57;4.53;;;;;;;10.16;63.19;101049.91;5032552;28;20472;-66
2022/04/17 05:52:37;;;;;;;4.32;3.85;;;;;;;10.16;63.17;101049.91;5033903;28;20083;-65
2022/04/17 05:55:21;;;;;;;5.68;4.15;;;;;;;10.16;62.88;101052.50;5033613;28;20044;-65
2022/04/17 05:58:05;;;;;;;4.07;3.67;;;;;;;10.16;63.15;101049.91;5032992;28;20057;-65
2022/04/17 06:00:49;;;;;;;5.40;4.15;;;;;;;10.16;63.08;101057.69;5033151;28;20052;-66
2022/04/17 06:03:34;;;;;;;4.40;4.00;;;;;;;10.15;63.11;101051.59;5032868;28;20097;-65
2022/04/17 06:06:18;;;;;;;;;;;;;;;10.13;63.26;101062.75;5032696;28;20555;-65
2022/04/17 06:09:02;;;;;;;4.53;4.13;;;;;;;10.13;63.24;101061.03;5033509;28;19923;-64
2022/04/17 06:11:47;;;;;;;6.10;4.78;;;;;;;10.13;63.09;101065.34;5033702;28;20056;-65
2022/04/17 06:14:31;;;;;;;;;;;;;;;10.11;63.08;101057.53;5033748;28;20534;-65
2022/04/17 06:17:15;;;;;;;5.30;4.80;;;;;;;10.11;62.93;101059.22;5033695;28;20292;-65
2022/04/17 06:20:06;;;;;;;4.30;3.88;;;;;;;10.10;63.02;101060.03;5033494;28;20059;-65
2022/04/17 06:22:50;;;;;;;4.93;4.35;;;;;;;10.09;63.26;101055.69;5032425;28;20095;-65
2022/04/17 06:25:34;;;;;;;4.03;3.53;;;;;;;10.08;63.22;101056.53;5033260;28;20060;-65
2022/04/17 06:28:18;;;;;;;5.53;4.43;;;;;;;10.08;63.27;101059.09;5032044;28;20566;-65
2022/04/17 06:31:03;;;;;;;4.20;3.80;;;;;;;10.03;62.85;101049.50;5033034;28;20052;-65
2022/04/17 06:33:47;;;;;;;4.03;3.60;;;;;;;10.03;63.10;101053.78;5032078;28;20048;-65
2022/04/17 06:36:31;;;;;;;5.47;4.28;;;;;;;10.02;63.08;101058.09;5032993;28;20098;-65
2022/04/17 06:39:15;;;;;;;5.90;4.20;;;;;;;10.02;63.02;101049.44;5033334;28;20075;-65
2022/04/17 06:41:59;;;;;;;4.90;4.22;;;;;;;10.02;63.08;101046.84;5032797;28;20045;-65
2022/04/17 06:44:43;;;;;;;4.72;4.07;;;;;;;10.04;62.94;101046.03;5032538;28;20076;-65
2022/04/17 06:47:30;;;;;;;5.35;3.97;;;;;;;10.03;63.23;101043.41;5032284;28;20060;-65
2022/04/17 06:50:16;;;;;;;4.50;3.90;;;;;;;10.04;63.30;101043.47;5032062;28;20051;-65
2022/04/17 06:53:00;;;;;;;4.82;4.30;;;;;;;10.04;63.11;101045.19;5032022;28;20065;-65
2022/04/17 06:55:44;;;;;;;4.82;3.50;;;;;;;10.05;63.52;101042.63;5033190;28;20075;-65
2022/04/17 06:58:28;;;;;;;5.15;4.63;;;;;;;10.05;63.02;101044.34;5031701;28;20080;-65
2022/04/17 07:01:14;;;;;;;6.57;4.72;;;;;;;10.06;63.02;101040.94;5032510;28;20048;-65
2022/04/17 07:03:58;;;;;;;4.75;4.25;;;;;;;10.04;62.87;101038.28;5033080;28;20048;-64
2022/04/17 07:06:42;;;;;;;5.78;4.15;;;;;;;10.03;63.19;101036.53;5032605;28;20052;-65
2022/04/17 07:09:26;;;;;;;4.43;4.03;;;;;;;10.01;63.29;101032.13;5033130;28;20420;-65
2022/04/17 07:12:10;;;;;;;5.60;4.47;;;;;;;9.99;62.96;101026.91;5032056;28;20049;-65
2022/04/17 07:14:54;;;;;;;5.40;4.13;;;;;;;9.98;62.81;101029.41;5033174;28;20045;-65
2022/04/17 07:17:39;;;;;;;5.53;4.13;;;;;;;9.95;63.08;101030.22;5033371;28;20405;-65
2022/04/17 07:20:26;;;;;;;5.35;3.88;;;;;;;9.93;62.76;101024.09;5032249;28;20048;-65
2022/04/17 07:23:10;;;;;;;6.03;3.67;;;;;;;9.94;62.75;101028.44;5032747;28;20080;-64
2022/04/17 07:25:56;;;;;;;4.65;4.25;;;;;;;9.95;62.69;101034.53;5032841;28;20121;-65
2022/04/17 07:28:40;;;;;;;4.10;3.70;;;;;;;9.95;62.73;101034.53;5032700;28;20107;-65
2022/04/17 07:31:25;;;;;;;3.60;3.28;;;;;;;9.95;62.57;101037.13;5032706;28;20563;-65
2022/04/17 07:34:08;;;;;;;6.10;3.53;;;;;;;9.95;62.72;101037.97;5035176;28;20052;-65
2022/04/17 07:36:54;;;;;;;3.55;3.10;;;;;;;9.95;62.43;101032.78;5035480;28;20044;-65
2022/04/17 07:39:38;;;;;;;5.28;4.07;;;;;;;9.94;62.51;101030.16;5035257;28;20056;-64
2022/04/17 07:42:22;;;;;;;6.85;4.30;;;;;;;9.94;62.56;101031.03;5036433;28;20079;-65
2022/04/17 07:45:06;;;;;;;4.13;3.60;;;;;;;9.96;62.63;101031.97;5035872;28;20409;-65
2022/04/17 07:47:51;;;;;;;4.07;3.67;;;;;;;9.97;62.43;101025.06;5035981;28;20049;-65
2022/04/17 07:50:35;;;;;;;5.38;3.00;;;;;;;9.96;62.04;101019.03;5036073;28;20052;-65
2022/04/17 07:53:19;;;;;;;4.47;4.07;;;;;;;9.96;62.35;101013.84;5034699;28;20091;-65
2022/04/17 07:56:03;;;;;;;4.28;3.38;;;;;;;9.97;62.23;101017.28;5036023;28;20591;-65
2022/04/17 07:58:47;;;;;;;;;;;;;;;9.94;62.36;101006.88;5036462;28;20107;-64
2022/04/17 08:01:39;;;;;;;3.35;3.05;;;;;;;9.94;62.17;101012.03;5035840;28;19924;-64
2022/04/17 08:04:22;;;;;;;3.78;3.17;;;;;;;9.95;61.79;101012.09;5035522;28;20068;-65
2022/04/17 08:07:06;;;;;;;5.32;3.67;;;;;;;9.94;62.24;100999.97;5036035;28;20051;-65
2022/04/17 08:09:51;;;;;;;5.85;3.80;;;;;;;9.96;62.42;101002.63;5035437;28;20384;-64
2022/04/17 08:12:35;;;;;;;4.43;3.70;;;;;;;9.96;62.36;101007.81;5036028;28;20432;-65
2022/04/17 08:15:19;;;;;;;4.03;3.63;;;;;;;9.95;62.27;101001.72;5035638;28;20048;-65
2022/04/17 08:18:03;;;;;;;4.57;3.53;;;;;;;9.95;61.83;101001.72;5035041;28;20425;-65
2022/04/17 08:20:47;;;;;;;4.45;3.33;;;;;;;9.95;61.80;101000.84;5035211;28;20095;-65
2022/04/17 08:23:31;;;;;;;5.13;4.55;;;;;;;9.97;62.28;100994.00;5035509;28;20060;-65
2022/04/17 08:26:14;;;;;;;4.60;2.85;;;;;;;9.98;61.91;100999.25;5035013;28;20098;-65
2022/04/17 08:28:58;;;;;;;3.55;3.15;;;;;;;9.99;61.95;100997.53;5034966;28;20467;-65
2022/04/17 08:31:42;;;;;;;4.28;3.53;;;;;;;9.99;62.00;100992.34;5035181;28;20083;-64
2022/04/17 08:34:26;;;;;;;4.68;3.65;;;;;;;10.01;62.21;100994.16;5034978;28;20416;-64
2022/04/17 08:37:10;;;;;;;5.35;3.60;;;;;;;10.04;62.17;100991.66;5034880;28;20044;-65
2022/04/17 08:39:54;;;;;;;4.18;3.50;;;;;;;10.05;62.06;101000.31;5033845;28;20083;-64
2022/04/17 08:42:39;;;;;;;6.35;4.07;;;;;;;10.06;62.28;100989.13;5034019;28;20099;-64
2022/04/17 08:45:24;;;;;;;5.05;3.20;;;;;;;10.09;61.85;100991.84;5034776;28;20072;-64
2022/04/17 08:48:08;;;;;;;5.13;3.40;;;;;;;10.12;62.10;100983.28;5033953;28;20068;-64
2022/04/17 08:50:53;;;;;;;5.03;3.22;;;;;;;10.13;62.05;100987.63;5034231;28;20091;-64
2022/04/17 08:53:39;;;;;;;;;;;;;;;10.14;62.35;100986.81;5034549;28;20102;-64
2022/04/17 08:56:23;;;;;;;4.07;3.28;;;;;;;10.15;62.42;100989.44;5034724;28;19920;-64
2022/04/17 08:59:07;;;;;;;4.20;3.45;;;;;;;10.17;62.36;100986.91;5033549;28;20060;-65
2022/04/17 09:01:50;;;;;;;3.38;2.95;;;;;;;10.19;62.23;100974.88;5033606;28;20059;-65
2022/04/17 09:04:35;;;;;;;4.25;3.10;;;;;;;10.21;62.42;100968.91;5034607;28;20049;-65
2022/04/17 09:07:18;;;;;;;4.57;3.42;;;;;;;10.25;61.99;100974.19;5034718;28;20400;-65
2022/04/17 09:10:03;;;;;;;3.20;2.90;;;;;;;10.27;62.43;100977.72;5034355;28;20460;-65
2022/04/17 09:12:52;;;;;;;4.00;2.83;;;;;;;10.29;62.13;100970.84;5034196;28;20056;-64
2022/04/17 09:15:37;;;;;;;4.15;3.15;;;;;;;10.32;61.91;100965.78;5034317;28;20044;-64
2022/04/17 09:18:21;;;;;;;4.00;3.58;;;;;;;10.35;62.01;100971.06;5033285;28;20428;-65
2022/04/17 09:21:05;;;;;;;3.40;2.97;;;;;;;10.35;61.92;100971.94;5034087;28;20107;-64
2022/04/17 09:23:49;;;;;;;3.05;2.58;;;;;;;10.36;62.34;100968.50;5034213;28;20072;-64
2022/04/17 09:26:34;;;;;;;3.50;2.70;;;;;;;10.39;62.24;100972.06;5033977;28;20567;-64
2022/04/17 09:29:23;;;;;;;3.50;2.70;;;;;;;10.41;62.22;100967.81;5033592;28;20103;-65
2022/04/17 09:32:12;;;;;;;6.07;3.40;;;;;;;10.43;62.18;100964.44;5033052;28;20075;-64
2022/04/17 09:34:56;;;;;;;3.95;3.15;;;;;;;10.46;62.17;100958.47;5033444;28;20060;-64
2022/04/17 09:37:40;;;;;;;4.45;3.72;;;;;;;10.46;62.09;100953.31;5033784;28;20429;-65
2022/04/17 09:40:24;;;;;;;4.30;3.40;;;;;;;10.47;62.12;100945.56;5034120;28;20061;-64
2022/04/17 09:43:08;;;;;;;3.97;3.28;;;;;;;10.51;62.24;100943.94;5033095;28;20045;-65
2022/04/17 09:46:01;;;;;;;3.55;3.17;;;;;;;10.53;61.85;100946.59;5033925;28;20051;-64
2022/04/17 09:48:45;;;;;;;3.25;2.80;;;;;;;10.56;62.07;100938.91;5032595;28;20456;-64
2022/04/17 09:51:31;;;;;;;3.97;3.55;;;;;;;10.58;61.76;100938.13;5033888;28;20056;-65
2022/04/17 09:54:16;;;;;;;3.70;2.80;;;;;;;10.59;62.04;100936.41;5033540;28;20087;-65
2022/04/17 09:57:00;;;;;;;5.55;2.97;;;;;;;10.60;62.05;100923.50;5032931;28;20463;-64
2022/04/17 09:59:45;;;;;;;4.50;3.28;;;;;;;10.61;62.04;100927.84;5034019;28;20400;-64
2022/04/17 10:02:30;;;;;;;3.95;3.03;;;;;;;10.63;61.79;100912.31;5033753;28;20060;-64
2022/04/17 10:05:16;;;;;;;3.90;2.97;;;;;;;10.63;62.14;100915.81;5032752;28;20056;-65
2022/04/17 10:08:01;;;;;;;4.22;2.72;;;;;;;10.64;61.64;100906.31;5032962;28;20088;-64
2022/04/17 10:10:45;;;;;;;3.58;2.20;;;;;;;10.66;61.87;100905.53;5032503;28;20409;-64
2022/04/17 10:13:31;;;;;;;3.58;2.80;;;;;;;10.68;62.19;100896.91;5033612;28;20103;-64
2022/04/17 10:16:20;;;;;;;4.30;2.58;;;;;;;10.70;62.07;100900.41;5033785;28;20051;-64
2022/04/17 10:19:07;;;;;;;3.70;2.25;;;;;;;10.71;61.70;100897.00;5032347;28;20574;-64
2022/04/17 10:21:52;;;;;;;3.97;2.42;;;;;;;10.72;62.13;100896.16;5032459;28;20044;-64
2022/04/17 10:24:39;;;;;;;3.25;2.92;;;;;;;10.72;62.02;100885.78;5032908;28;20167;-64
2022/04/17 10:27:26;;;;;;;4.82;2.60;;;;;;;10.74;62.17;100889.31;5031932;28;20467;-65
2022/04/17 10:30:16;;;;;;;3.63;2.60;;;;;;;10.75;62.18;100884.16;5033143;28;20061;-64
2022/04/17 10:33:37;;;;;;;2.97;2.28;;;;;;;10.79;61.99;100886.00;5032274;28;20056;-64
2022/04/17 10:36:37;;;;;;;3.50;2.53;;;;;;;10.77;62.22;100872.13;5032074;28;20040;-65
2022/04/17 10:39:31;;;;;;;4.00;2.80;;;;;;;10.79;62.03;100879.97;5033176;28;20052;-65
2022/04/17 10:42:16;;;;;;;3.80;2.58;;;;;;;10.79;61.92;100874.78;5032560;28;20111;-64
2022/04/17 10:45:04;;;;;;;5.85;2.85;;;;;;;10.79;62.06;100867.00;5032965;28;20052;-64
2022/04/17 10:48:09;;;;;;;3.15;2.50;;;;;;;10.79;62.14;100864.41;5032443;28;20402;-64
2022/04/17 10:50:54;;;;;;;4.28;2.90;;;;;;;10.80;62.06;100855.78;5032383;28;20389;-65
2022/04/17 10:53:49;;;;;;;3.88;3.17;;;;;;;10.80;61.82;100850.59;5033308;28;20100;-64
2022/04/17 10:56:35;;;;;;;5.53;3.00;;;;;;;10.82;62.06;100838.56;5032502;28;20159;-64
2022/04/17 10:59:21;;;;;;;4.13;2.67;;;;;;;10.84;62.19;100839.47;5031896;28;20104;-65
2022/04/17 11:02:29;;;;;;;2.80;2.50;;;;;;;10.83;61.85;100835.09;5032111;28;20057;-64
2022/04/17 11:05:13;;;;;;;3.15;2.70;;;;;;;10.86;62.09;100837.78;5032932;28;20045;-64
2022/04/17 11:08:17;;;;;;;2.95;2.65;;;;;;;10.87;61.66;100828.31;5036023;28;20099;-64
2022/04/17 11:11:03;;;;;;;5.63;2.80;;;;;;;10.89;62.28;100830.09;5036666;28;20045;-64
2022/04/17 11:14:13;;;;;;;3.85;2.97;;;;;;;10.90;61.80;100829.25;5035235;28;20087;-65
2022/04/17 11:17:00;;;;;;;4.10;2.78;;;;;;;10.94;62.04;100825.03;5036440;28;20072;-64
2022/04/17 11:19:47;;;;;;;3.17;2.63;;;;;;;10.94;61.82;100825.94;5035943;28;20048;-64
2022/04/17 11:22:35;;;;;;;2.65;2.45;;;;;;;10.98;61.66;100811.31;5036047;28;20056;-64
2022/04/17 11:25:19;;;;;;;4.60;3.20;;;;;;;10.99;61.75;100810.47;5036290;28;20466;-64
2022/04/17 11:28:03;;;;;;;3.58;3.17;;;;;;;11.00;61.90;100808.75;5035158;28;20072;-64
2022/04/17 11:30:53;;;;;;;4.13;3.33;;;;;;;11.00;61.91;100796.69;5035158;28;20052;-65
2022/04/17 11:33:37;;;;;;;4.95;3.03;;;;;;;11.00;61.52;100790.59;5035856;28;20119;-65
2022/04/17 11:36:22;;;;;;;;;;;;;;;10.99;61.59;100794.03;5036224;28;20044;-64
2022/04/17 11:39:06;;;;;;;3.33;2.90;;;;;;;10.97;61.93;100783.63;5036252;28;19919;-64
2022/04/17 11:41:50;;;;;;;5.10;3.47;;;;;;;10.97;61.58;100786.22;5035705;28;20479;-64
2022/04/17 11:44:34;;;;;;;3.33;2.88;;;;;;;10.98;61.64;100779.34;5035971;28;20182;-64
2022/04/17 11:47:22;;;;;;;3.72;3.10;;;;;;;10.98;62.00;100782.78;5035863;28;20499;-65
2022/04/17 11:50:12;;;;;;;4.13;3.33;;;;;;;10.99;61.85;100776.75;5035191;28;20048;-65
2022/04/17 11:52:59;;;;;;;3.42;2.50;;;;;;;11.02;62.08;100773.38;5035283;28;20052;-64
2022/04/17 11:55:45;;;;;;;4.55;3.03;;;;;;;11.02;62.16;100766.47;5035217;28;20056;-64
2022/04/17 11:58:29;;;;;;;4.10;3.13;;;;;;;11.04;62.00;100764.81;5035042;28;20072;-65
2022/04/17 12:01:21;;;;;;;;;;;;;;;11.03;61.42;100756.97;5035300;28;20439;-64
2022/04/17 12:04:05;;;;;;;3.88;2.80;;;;;;;11.00;61.98;100755.19;5035088;28;20390;-64
2022/04/17 12:06:55;;;;;;;3.05;2.75;;;;;;;11.01;62.05;100746.56;5035817;28;20043;-64
2022/04/17 12:09:40;;;;;;;4.63;3.25;;;;;;;11.03;62.05;100741.41;5034244;28;20053;-64
2022/04/17 12:12:36;;;;;;;4.38;3.25;;;;;;;11.03;61.74;100731.91;5034946;28;20049;-65
2022/04/17 12:15:21;;;;;;;3.55;3.25;;;;;;;11.04;61.92;100731.09;5034650;28;20088;-65
2022/04/17 12:18:05;;;;;;;4.35;3.15;;;;;;;11.06;62.23;100725.91;5034445;28;20056;-65
2022/04/17 12:21:02;;;;;;;4.63;3.28;;;;;;;11.08;62.15;100719.06;5034777;28;20397;-65
2022/04/17 12:23:46;;;;;;;3.45;3.15;;;;;;;11.08;62.01;100716.47;5035600;28;20160;-65
2022/04/17 12:26:30;;;;;;;3.63;3.08;;;;;;;11.07;61.80;100705.19;5035611;28;20076;-65
2022/04/17 12:29:15;;;;;;;;;;;;;;;11.07;61.88;100712.97;5034225;28;20056;-65
2022/04/17 12:31:58;;;;;;;4.37;3.30;;;;;;;11.08;61.91;100706.09;5035002;28;19967;-64
2022/04/17 12:34:46;;;;;;;3.72;2.58;;;;;;;11.09;62.25;100698.31;5033963;28;20291;-64
2022/04/17 12:37:32;;;;;;;3.00;2.60;;;;;;;11.11;61.89;100703.56;5034387;28;20168;-64
2022/04/17 12:40:22;;;;;;;3.40;2.70;;;;;;;11.11;62.37;100688.00;5033925;28;20052;-65
2022/04/17 12:43:17;;;;;;;4.13;2.88;;;;;;;11.11;62.47;100690.59;5034049;28;20048;-64
2022/04/17 12:46:04;;;;;;;4.20;2.85;;;;;;;11.11;62.30;100683.69;5033821;28;20114;-65
2022/04/17 12:49:07;;;;;;;3.75;3.08;;;;;;;11.11;62.07;100685.41;5034259;28;20048;-64
2022/04/17 12:51:57;;;;;;;3.17;2.88;;;;;;;11.12;62.05;100687.16;5034192;28;20203;-64
2022/04/17 12:54:42;;;;;;;2.67;2.47;;;;;;;11.12;62.41;100674.19;5034802;28;20084;-65
2022/04/17 12:57:25;;;;;;;3.15;2.83;;;;;;;11.13;61.91;100670.75;5034296;28;20052;-64
2022/04/17 13:00:17;;;;;;;3.63;2.75;;;;;;;11.13;61.85;100662.97;5034776;28;20049;-65
2022/04/17 13:03:17;;;;;;;3.72;2.40;;;;;;;11.12;62.11;100656.91;5033609;28;20068;-65
2022/04/17 13:06:02;;;;;;;3.65;2.60;;;;;;;11.14;62.23;100650.88;5033870;28;20119;-65
2022/04/17 13:09:12;;;;;;;3.58;2.63;;;;;;;11.14;61.97;100649.13;5034040;28;20159;-65